Time;durP1;ratioP1;P1;durP2;ratioP2;P2;SDS_P1;SDS_P2;PMS_P1;PMS_P2;Temp;Humidity;BMP_temperature;BMP_pressure;BME280_temperature;BME280_humidity;BME280_pressure;Samples;Min_cycle;Max_cycle;Signal;HPM_P1;HPM_P2
2022/05/12 00:00:53;;;;;;;6.40;3.88;;;384.70;2329.60;;;;;;5030919;28;20775;-54
2022/05/12 00:03:18;;;;;;;4.65;3.65;;;384.60;2329.60;;;;;;5031265;28;20383;-54
2022/05/12 00:05:45;;;;;;;7.50;4.13;;;384.60;2329.60;;;;;;5030491;28;20032;-53
2022/05/12 00:08:11;;;;;;;7.60;3.80;;;384.60;2329.60;;;;;;5030785;28;20037;-55
2022/05/12 00:10:37;;;;;;;6.55;3.50;;;384.60;2329.60;;;;;;5030961;28;20504;-54
2022/05/12 00:13:04;;;;;;;6.03;3.42;;;384.40;2329.60;;;;;;5030656;28;20033;-54
2022/05/12 00:15:33;;;;;;;5.85;3.90;;;384.50;2329.60;;;;;;5030837;28;20029;-55
2022/05/12 00:18:02;;;;;;;6.60;4.10;;;384.50;2329.60;;;;;;5030611;28;20018;-54
2022/05/12 00:20:28;;;;;;;6.22;3.80;;;384.50;2329.60;;;;;;5030699;28;20076;-55
2022/05/12 00:23:09;;;;;;;5.35;3.60;;;384.40;2329.60;;;;;;5030467;28;20074;-55
2022/05/12 00:25:35;;;;;;;7.03;4.55;;;384.40;2329.60;;;;;;5030764;28;20033;-54
2022/05/12 00:28:01;;;;;;;5.00;3.42;;;384.40;2329.60;;;;;;5030570;28;20104;-55
2022/05/12 00:30:27;;;;;;;5.85;3.80;;;384.20;2329.60;;;;;;5030594;28;20566;-55
2022/05/12 00:32:52;;;;;;;6.43;4.70;;;384.10;2329.60;;;;;;5030196;28;20025;-54
2022/05/12 00:35:18;;;;;;;4.95;3.67;;;384.10;2329.60;;;;;;5030565;28;20026;-53
2022/05/12 00:37:44;;;;;;;6.18;4.20;;;384.10;2329.60;;;;;;5029794;28;20046;-53
2022/05/12 00:40:12;;;;;;;6.25;3.78;;;384.20;2329.60;;;;;;5030338;28;20515;-55
2022/05/12 00:42:56;;;;;;;7.60;3.58;;;384.20;2329.60;;;;;;5030494;28;20025;-53
2022/05/12 00:45:21;;;;;;;5.32;3.47;;;384.20;2329.60;;;;;;5030110;28;20107;-55
2022/05/12 00:47:47;;;;;;;5.82;4.07;;;384.10;2329.60;;;;;;5030102;28;20480;-54
2022/05/12 00:50:14;;;;;;;5.28;3.83;;;384.10;2329.60;;;;;;5029808;28;20124;-54
2022/05/12 00:52:40;;;;;;;5.45;3.83;;;384.20;2329.60;;;;;;5029889;28;20028;-53
2022/05/12 00:55:11;;;;;;;5.10;3.67;;;384.10;2329.60;;;;;;5030032;28;20029;-54
2022/05/12 00:58:01;;;;;;;5.07;3.70;;;384.10;2329.60;;;;;;5030257;28;20033;-54
2022/05/12 01:00:27;;;;;;;4.85;3.63;;;384.00;2329.60;;;;;;5029997;28;20032;-54
2022/05/12 01:02:56;;;;;;;6.53;4.13;;;359.20;2329.60;;;;;;5029773;28;20022;-54
2022/05/12 01:05:24;;;;;;;5.25;3.88;;;359.10;2329.60;;;;;;5029577;28;20029;-55
2022/05/12 01:07:51;;;;;;;5.22;3.67;;;359.10;2329.60;;;;;;5029650;28;20037;-54
2022/05/12 01:10:18;;;;;;;5.82;3.97;;;358.90;2329.60;;;;;;5029782;28;20064;-54
2022/05/12 01:12:47;;;;;;;6.53;3.45;;;358.90;2329.60;;;;;;5029396;28;20465;-54
2022/05/12 01:15:14;;;;;;;5.63;3.88;;;358.80;2329.60;;;;;;5029680;28;20034;-53
2022/05/12 01:17:40;;;;;;;7.78;4.40;;;358.60;2329.60;;;;;;5028562;28;20027;-53
2022/05/12 01:20:06;;;;;;;5.78;3.60;;;358.60;2329.60;;;;;;5029654;28;20108;-54
2022/05/12 01:22:39;;;;;;;5.25;3.92;;;358.80;2329.60;;;;;;5029475;28;20060;-54
2022/05/12 01:25:14;;;;;;;4.63;3.65;;;358.80;2329.60;;;;;;5029147;28;20475;-53
2022/05/12 01:27:42;;;;;;;5.38;4.15;;;358.90;2329.60;;;;;;5029602;28;20025;-54
2022/05/12 01:30:11;;;;;;;5.55;3.95;;;358.80;2329.60;;;;;;5029603;28;20022;-54
2022/05/12 01:32:38;;;;;;;5.72;3.80;;;358.70;2329.60;;;;;;5029482;28;20499;-54
2022/05/12 01:35:04;;;;;;;5.90;3.55;;;358.70;2329.60;;;;;;5029264;28;20456;-53
2022/05/12 01:37:31;;;;;;;7.22;4.20;;;358.80;2329.60;;;;;;5028949;28;20049;-54
2022/05/12 01:39:57;;;;;;;4.50;3.47;;;358.80;2329.60;;;;;;5029638;28;20075;-53
2022/05/12 01:42:23;;;;;;;6.38;4.07;;;359.00;2329.60;;;;;;5029266;28;20140;-54
2022/05/12 01:44:49;;;;;;;7.20;4.13;;;358.90;2329.60;;;;;;5029299;28;20136;-54
2022/05/12 01:47:15;;;;;;;7.78;3.63;;;358.90;2329.60;;;;;;5028874;28;20024;-54
2022/05/12 01:49:42;;;;;;;6.28;4.10;;;358.90;2329.60;;;;;;5028996;28;20082;-54
2022/05/12 01:52:10;;;;;;;6.30;3.95;;;359.00;2329.60;;;;;;5029171;28;20017;-54
2022/05/12 01:54:36;;;;;;;7.00;3.70;;;358.90;2329.60;;;;;;5029161;28;20061;-53
2022/05/12 01:57:02;;;;;;;5.65;4.13;;;358.80;2329.60;;;;;;5029110;28;20405;-54
2022/05/12 01:59:28;;;;;;;5.80;3.80;;;358.70;2329.60;;;;;;5029150;28;20475;-54
2022/05/12 02:01:53;;;;;;;4.55;3.17;;;358.70;2329.60;;;;;;5028972;28;20030;-54
2022/05/12 02:04:19;;;;;;;4.57;3.17;;;358.60;2329.60;;;;;;5029214;28;20042;-54
2022/05/12 02:06:46;;;;;;;4.90;3.50;;;358.40;2329.60;;;;;;5028600;28;20064;-53
2022/05/12 02:09:12;;;;;;;6.03;3.58;;;358.40;2329.60;;;;;;5028852;28;20045;-54
2022/05/12 02:11:38;;;;;;;5.53;3.72;;;358.40;2329.60;;;;;;5029018;28;20027;-53
2022/05/12 02:14:05;;;;;;;5.38;3.60;;;358.40;2329.60;;;;;;5029005;28;20025;-55
2022/05/12 02:16:34;;;;;;;7.60;4.35;;;358.40;2329.60;;;;;;5028750;28;20223;-55
2022/05/12 02:19:01;;;;;;;6.43;3.58;;;358.40;2329.60;;;;;;5029277;28;20030;-53
2022/05/12 02:21:27;;;;;;;9.35;4.20;;;358.40;2329.60;;;;;;5028990;28;20026;-55
2022/05/12 02:23:53;;;;;;;3.92;3.15;;;333.70;2329.60;;;;;;5032309;28;20116;-54
2022/05/12 02:26:19;;;;;;;5.35;3.70;;;333.70;2329.60;;;;;;5032868;28;20024;-54
2022/05/12 02:28:44;;;;;;;5.90;4.15;;;333.70;2329.60;;;;;;5032848;28;20091;-54
2022/05/12 02:31:10;;;;;;;5.53;3.30;;;333.70;2329.60;;;;;;5032603;28;20433;-54
2022/05/12 02:33:36;;;;;;;4.80;3.33;;;358.40;2329.60;;;;;;5032763;28;20034;-54
2022/05/12 02:36:02;;;;;;;5.72;3.67;;;358.50;2329.60;;;;;;5032628;28;20029;-55
2022/05/12 02:38:28;;;;;;;5.53;3.55;;;358.40;2329.60;;;;;;5032287;28;20482;-56
2022/05/12 02:40:54;;;;;;;6.43;3.80;;;333.70;2329.60;;;;;;5032544;28;20109;-55
2022/05/12 02:43:23;;;;;;;5.13;3.50;;;333.60;2329.60;;;;;;5032526;28;20036;-54
2022/05/12 02:45:54;;;;;;;5.00;3.45;;;333.60;2329.60;;;;;;5032567;28;20033;-54
2022/05/12 02:48:22;;;;;;;4.65;3.40;;;333.50;2329.60;;;;;;5032396;28;20026;-54
2022/05/12 02:50:48;;;;;;;10.57;4.00;;;333.40;2329.60;;;;;;5032576;28;20033;-54
2022/05/12 02:53:14;;;;;;;5.88;3.67;;;333.40;2329.60;;;;;;5032321;28;20379;-53
2022/05/12 02:55:40;;;;;;;5.50;3.75;;;333.50;2329.60;;;;;;5032390;28;20033;-54
2022/05/12 02:58:06;;;;;;;6.40;4.00;;;333.60;2329.60;;;;;;5032362;28;20598;-52
2022/05/12 03:00:33;;;;;;;6.90;3.70;;;333.60;2329.60;;;;;;5031923;28;20112;-55
2022/05/12 03:02:59;;;;;;;7.32;4.18;;;333.50;2329.60;;;;;;5032142;28;20059;-55
2022/05/12 03:05:25;;;;;;;5.35;3.65;;;333.50;2329.60;;;;;;5032415;28;20399;-54
2022/05/12 03:07:51;;;;;;;6.45;3.13;;;333.40;2329.60;;;;;;5031733;28;20037;-55
2022/05/12 03:10:17;;;;;;;5.55;3.55;;;333.40;2329.60;;;;;;5032342;28;20491;-54
2022/05/12 03:12:43;;;;;;;5.03;3.63;;;333.40;2329.60;;;;;;5031833;28;20094;-54
2022/05/12 03:15:10;;;;;;;8.98;4.60;;;333.40;2329.60;;;;;;5031996;28;20032;-54
2022/05/12 03:17:36;;;;;;;4.78;4.15;;;333.40;2329.60;;;;;;5031655;28;20028;-54
2022/05/12 03:20:05;;;;;;;6.38;3.97;;;333.50;2329.60;;;;;;5031950;28;20083;-54
2022/05/12 03:22:30;;;;;;;6.70;4.03;;;333.60;2329.60;;;;;;5031779;28;20378;-54
2022/05/12 03:24:56;;;;;;;5.53;3.67;;;333.60;2329.60;;;;;;5032039;28;20037;-55
2022/05/12 03:27:22;;;;;;;5.47;3.58;;;333.70;2329.60;;;;;;5031862;28;20030;-52
2022/05/12 03:29:48;;;;;;;7.47;3.60;;;333.70;2329.60;;;;;;5031783;28;20034;-54
2022/05/12 03:32:14;;;;;;;5.10;3.70;;;358.40;2329.60;;;;;;5031374;28;20030;-54
2022/05/12 03:34:40;;;;;;;5.75;3.65;;;358.40;2329.60;;;;;;5030826;28;20033;-53
2022/05/12 03:37:07;;;;;;;5.93;4.18;;;358.70;2329.60;;;;;;5031067;28;20112;-53
2022/05/12 03:39:35;;;;;;;6.85;3.70;;;358.50;2329.60;;;;;;5031486;28;20084;-54
2022/05/12 03:42:00;;;;;;;4.63;3.47;;;358.70;2329.60;;;;;;5031586;28;20479;-54
2022/05/12 03:47:12;;;;;;;4.47;3.20;;;359.00;2329.60;;;;;;5031344;28;20040;-54
2022/05/12 03:49:38;;;;;;;4.68;3.25;;;359.10;2329.60;;;;;;5031538;28;20032;-54
2022/05/12 03:52:04;;;;;;;4.72;3.60;;;359.10;2329.60;;;;;;5031065;28;20044;-54
2022/05/12 03:54:30;;;;;;;7.78;4.38;;;359.10;2329.60;;;;;;5031213;28;20029;-53
2022/05/12 03:56:56;;;;;;;5.47;3.47;;;359.00;2329.60;;;;;;5031503;28;20153;-55
2022/05/12 03:59:21;;;;;;;6.18;3.78;;;359.20;2329.60;;;;;;5031024;28;20033;-55
2022/05/12 04:01:47;;;;;;;6.95;3.65;;;359.30;2329.60;;;;;;5031035;28;20079;-54
2022/05/12 04:04:13;;;;;;;6.43;4.03;;;384.00;2329.60;;;;;;5030889;28;20072;-54
2022/05/12 04:06:39;;;;;;;5.63;3.60;;;384.10;2329.60;;;;;;5030894;28;20056;-54
2022/05/12 04:09:05;;;;;;;5.05;3.15;;;384.20;2329.60;;;;;;5030527;28;20065;-55
2022/05/12 04:11:30;;;;;;;5.40;3.70;;;384.40;2329.60;;;;;;5030924;28;20021;-54
2022/05/12 04:13:56;;;;;;;5.85;3.40;;;384.60;2329.60;;;;;;5030988;28;20033;-54
2022/05/12 04:16:23;;;;;;;5.57;3.70;;;384.90;2329.60;;;;;;5030726;28;20068;-55
2022/05/12 04:18:49;;;;;;;6.53;3.78;;;409.60;2355.20;;;;;;5030773;28;20117;-54
2022/05/12 04:21:18;;;;;;;6.22;3.90;;;409.70;2355.20;;;;;;5031246;28;20104;-55
2022/05/12 04:23:44;;;;;;;6.43;4.10;;;410.00;2355.20;;;;;;5050163;28;20045;-55
2022/05/12 04:26:10;;;;;;;6.35;4.40;;;410.30;2355.20;;;;;;5050619;28;20028;-54
2022/05/12 04:28:37;;;;;;;6.55;3.78;;;435.20;2355.20;;;;;;5050516;28;20028;-53
2022/05/12 04:31:02;;;;;;;5.80;3.05;;;435.40;2355.20;;;;;;5050163;28;20032;-54
2022/05/12 04:36:13;;;;;;;4.38;3.33;;;435.90;2355.20;;;;;;5050377;28;20055;-53
2022/05/12 04:38:39;;;;;;;4.32;3.22;;;436.00;2355.20;;;;;;5043043;28;20088;-54
2022/05/12 04:41:06;;;;;;;6.13;3.28;;;436.00;2355.20;;;;;;5050166;28;20040;-55
2022/05/12 04:43:32;;;;;;;6.00;3.67;;;436.10;2355.20;;;;;;5049814;28;20045;-55
2022/05/12 04:45:58;;;;;;;5.70;3.42;;;436.10;2355.20;;;;;;5048881;28;20033;-55
2022/05/12 04:48:25;;;;;;;5.30;3.83;;;461.20;2380.80;;;;;;5049995;28;20082;-55
2022/05/12 04:50:50;;;;;;;5.07;3.42;;;512.60;2380.80;;;;;;5049929;28;20025;-55
2022/05/12 04:53:16;;;;;;;5.63;4.35;;;615.00;1843.20;;;;;;5049938;28;20025;-54
2022/05/12 04:55:44;;;;;;;4.78;3.53;;;691.30;1587.20;;;;;;5049886;28;20060;-55
2022/05/12 04:58:10;;;;;;;4.70;4.10;;;717.60;1459.20;;;;;;5050048;28;20020;-54
2022/05/12 05:00:40;;;;;;;4.55;4.03;;;768.70;1356.80;;;;;;5049740;28;20033;-55
2022/05/12 05:03:06;;;;;;;5.28;4.30;;;794.20;1280.00;;;;;;5045810;28;20388;-56
2022/05/12 05:05:34;;;;;;;5.15;3.67;;;794.30;1280.00;;;;;;5049567;28;20056;-56
2022/05/12 05:08:00;;;;;;;5.55;4.32;;;819.30;1254.40;;;;;;5042703;28;20379;-57
2022/05/12 05:10:26;;;;;;;4.78;4.03;;;870.40;1177.60;;;;;;5050714;28;20025;-57
2022/05/12 05:12:53;;;;;;;4.75;3.75;;;871.10;1100.80;;;;;;5046859;28;20036;-56
2022/05/12 05:15:20;;;;;;;5.22;4.30;;;871.00;1100.80;;;;;;5044201;28;20024;-57
2022/05/12 05:17:47;;;;;;;4.57;4.10;;;871.30;1075.20;;;;;;5050597;28;20020;-57
2022/05/12 05:20:19;;;;;;;5.80;4.60;;;896.90;1024.00;;;;;;5050472;28;20036;-57
2022/05/12 05:22:46;;;;;;;5.30;4.80;;;896.50;1049.60;;;;;;5050157;28;20021;-56
2022/05/12 05:25:11;;;;;;;6.07;4.57;;;896.10;1075.20;;;;;;5050223;28;20368;-56
2022/05/12 05:27:37;;;;;;;5.65;4.90;;;819.80;1152.00;;;;;;5050545;28;20104;-56
2022/05/12 05:30:05;;;;;;;7.47;5.72;;;819.20;1203.20;;;;;;5050275;28;20021;-60
2022/05/12 05:32:32;;;;;;;6.10;4.57;;;768.60;1254.40;;;;;;5030405;28;20055;-61
2022/05/12 05:34:57;;;;;;;7.95;4.63;;;717.70;1331.20;;;;;;5034846;28;20026;-61
2022/05/12 05:37:23;;;;;;;6.47;5.88;;;717.70;1331.20;;;;;;5029495;28;20510;-60
2022/05/12 05:39:49;;;;;;;6.80;5.28;;;768.20;1305.60;;;;;;5030285;28;20055;-61
2022/05/12 05:42:21;;;;;;;8.50;6.28;;;870.50;1126.40;;;;;;5030036;28;20025;-61
2022/05/12 05:44:47;;;;;;;7.25;6.55;;;922.50;1049.60;;;;;;5030000;28;20040;-61
2022/05/12 05:47:14;;;;;;;7.30;6.60;;;922.20;1049.60;;;;;;5030059;28;20033;-61
2022/05/12 05:49:41;;;;;;;6.28;5.78;;;973.00;972.80;;;;;;5030457;28;20475;-61
2022/05/12 05:54:52;;;;;;;7.28;6.68;;;998.80;947.20;;;;;;5030052;28;20060;-62
2022/05/12 05:57:24;;;;;;;8.32;7.72;;;1049.80;921.60;;;;;;5029585;28;20471;-61
2022/05/12 05:59:52;;;;;;;6.47;5.88;;;1024.20;921.60;;;;;;5030319;28;20048;-61
2022/05/12 06:02:17;;;;;;;8.32;4.88;;;1024.70;896.00;;;;;;5030025;28;20029;-61
2022/05/12 06:04:43;;;;;;;7.93;7.32;;;998.80;921.60;;;;;;5029833;28;20045;-61
2022/05/12 06:07:09;;;;;;;9.20;8.43;;;1024.60;896.00;;;;;;5030002;28;20380;-61
2022/05/12 06:09:35;;;;;;;8.35;7.68;;;1050.00;870.40;;;;;;5029804;28;20492;-63
2022/05/12 06:12:00;;;;;;;7.60;7.03;;;1049.80;896.00;;;;;;5029731;28;20017;-62
2022/05/12 06:14:26;;;;;;;9.48;8.57;;;998.90;921.60;;;;;;5030303;28;20033;-62
2022/05/12 06:16:52;;;;;;;7.35;6.75;;;998.80;921.60;;;;;;5030017;28;20025;-62
2022/05/12 06:19:18;;;;;;;8.38;7.78;;;999.20;921.60;;;;;;5029838;28;20356;-62
2022/05/12 06:21:45;;;;;;;10.90;9.90;;;1024.60;896.00;;;;;;5029718;28;20025;-62
2022/05/12 06:24:10;;;;;;;10.57;9.52;;;1024.90;896.00;;;;;;5029804;28;20060;-61
2022/05/12 06:26:36;;;;;;;9.68;8.80;;;1024.90;896.00;;;;;;5029978;28;20032;-62
2022/05/12 06:29:02;;;;;;;10.55;9.68;;;1024.10;947.20;;;;;;5029935;28;20472;-61
2022/05/12 06:31:32;;;;;;;9.68;8.88;;;973.70;947.20;;;;;;5030134;28;20040;-61
2022/05/12 06:33:59;;;;;;;10.65;9.93;;;1049.70;921.60;;;;;;5029678;28;20498;-62
2022/05/12 06:36:25;;;;;;;10.63;9.73;;;1050.40;896.00;;;;;;5029638;28;20053;-61
2022/05/12 06:38:51;;;;;;;10.20;9.35;;;1024.50;921.60;;;;;;5029428;28;20057;-62
2022/05/12 06:41:17;;;;;;;10.25;8.82;;;1049.90;921.60;;;;;;5029816;28;20097;-61
2022/05/12 06:43:45;;;;;;;8.13;7.07;;;998.90;947.20;;;;;;5029619;28;20360;-61
2022/05/12 06:46:11;;;;;;;9.93;9.23;;;999.30;921.60;;;;;;5029592;28;20371;-62
2022/05/12 06:48:37;;;;;;;10.50;9.50;;;998.60;972.80;;;;;;5029925;28;20021;-61
2022/05/12 06:51:03;;;;;;;10.32;9.55;;;1024.60;921.60;;;;;;5029467;28;20116;-63
2022/05/12 06:53:29;;;;;;;10.82;9.88;;;1101.00;870.40;;;;;;5029415;28;20356;-62
2022/05/12 06:55:55;;;;;;;11.02;9.98;;;1075.70;870.40;;;;;;5029510;28;20034;-61
2022/05/12 06:58:21;;;;;;;11.02;10.23;;;1075.50;870.40;;;;;;5029485;28;20017;-62
2022/05/12 07:00:47;;;;;;;12.30;11.20;;;1101.40;870.40;;;;;;5029834;28;20036;-62
2022/05/12 07:03:13;;;;;;;11.35;10.55;;;1101.60;844.80;;;;;;5029248;28;20167;-62
2022/05/12 07:05:40;;;;;;;10.73;9.93;;;1076.10;844.80;;;;;;5029497;28;20033;-62
2022/05/12 07:08:07;;;;;;;11.77;10.68;;;1101.00;870.40;;;;;;5029440;28;20116;-62
2022/05/12 07:10:33;;;;;;;10.93;10.23;;;1101.50;844.80;;;;;;5031896;28;20026;-62
2022/05/12 07:12:59;;;;;;;11.07;10.27;;;1126.70;844.80;;;;;;5032870;28;20034;-62
2022/05/12 07:15:27;;;;;;;10.95;10.13;;;1100.90;870.40;;;;;;5032977;28;20029;-62
2022/05/12 07:17:55;;;;;;;10.30;9.60;;;1101.30;844.80;;;;;;5033087;28;20032;-62
2022/05/12 07:28:37;;;;;;;11.82;10.80;;;1178.30;742.40;;;;;;5033106;28;20023;-62
2022/05/12 07:31:05;;;;;;;12.20;11.20;;;1228.90;742.40;;;;;;5032480;28;20034;-62
2022/05/12 07:33:40;;;;;;;12.38;11.38;;;1254.90;716.80;;;;;;5032652;28;20021;-62
2022/05/12 07:36:11;;;;;;;12.95;11.90;;;1204.10;742.40;;;;;;5032659;28;20084;-61
2022/05/12 07:38:37;;;;;;;11.20;10.50;;;1203.30;742.40;;;;;;5032391;28;20415;-61
2022/05/12 07:41:09;;;;;;;11.45;10.27;;;1229.20;742.40;;;;;;5037647;28;20033;-62
2022/05/12 07:43:35;;;;;;;11.60;10.73;;;1228.90;716.80;;;;;;5042677;28;20119;-62
2022/05/12 07:46:01;;;;;;;12.98;12.07;;;1254.60;716.80;;;;;;5032091;28;20480;-62
2022/05/12 07:48:27;;;;;;;10.75;9.82;;;1203.90;742.40;;;;;;5032319;28;20029;-62
2022/05/12 07:50:53;;;;;;;11.85;11.00;;;1204.10;716.80;;;;;;5032183;28;20094;-62
2022/05/12 07:53:19;;;;;;;11.52;10.70;;;1229.40;716.80;;;;;;5032449;28;20021;-63
2022/05/12 07:55:45;;;;;;;11.43;10.63;;;1203.70;716.80;;;;;;5032092;28;20029;-62
2022/05/12 07:58:12;;;;;;;11.07;10.27;;;1204.10;691.20;;;;;;5032110;28;20026;-61
2022/05/12 08:00:38;;;;;;;11.00;10.20;;;1229.30;691.20;;;;;;5032112;28;20053;-62
2022/05/12 08:03:04;;;;;;;11.50;10.70;;;1254.60;691.20;;;;;;5031661;28;20033;-62
2022/05/12 08:05:30;;;;;;;11.23;10.45;;;1254.60;691.20;;;;;;5031846;28;20037;-61
2022/05/12 08:07:56;;;;;;;9.80;9.25;;;1228.80;691.20;;;;;;5031806;28;20025;-62
2022/05/12 08:10:22;;;;;;;10.68;9.98;;;1228.90;691.20;;;;;;5031835;28;20509;-62
2022/05/12 08:12:50;;;;;;;9.75;9.05;;;1203.20;716.80;;;;;;5031970;28;20021;-62
2022/05/12 08:15:17;;;;;;;10.70;9.90;;;1178.00;716.80;;;;;;5031954;28;20027;-62
2022/05/12 08:17:43;;;;;;;10.50;9.80;;;1178.00;716.80;;;;;;5031746;28;20026;-62
2022/05/12 08:20:11;;;;;;;12.85;11.70;;;1203.30;691.20;;;;;;5031483;28;20379;-61
2022/05/12 08:22:37;;;;;;;9.02;8.43;;;1127.10;768.00;;;;;;5031824;28;20029;-61
2022/05/12 08:25:04;;;;;;;7.15;6.63;;;1050.00;793.60;;;;;;5031381;28;20025;-61
2022/05/12 08:27:31;;;;;;;6.00;5.50;;;998.70;870.40;;;;;;5031616;28;20028;-61
2022/05/12 08:29:57;;;;;;;5.40;4.85;;;972.90;921.60;;;;;;5031657;28;20025;-61
2022/05/12 08:32:23;;;;;;;4.88;4.47;;;947.30;896.00;;;;;;5031512;28;20032;-61
2022/05/12 08:34:48;;;;;;;4.28;3.88;;;922.00;921.60;;;;;;5031490;28;20029;-61
2022/05/12 08:37:15;;;;;;;4.60;4.20;;;896.80;896.00;;;;;;5030949;28;20404;-61
2022/05/12 08:39:44;;;;;;;5.03;4.63;;;871.10;947.20;;;;;;5031020;28;20053;-61
2022/05/12 08:42:29;;;;;;;4.55;4.15;;;870.90;998.40;;;;;;5031399;28;20030;-61
2022/05/12 08:44:56;;;;;;;4.30;3.85;;;845.60;1024.00;;;;;;5031047;28;20048;-61
2022/05/12 08:47:35;;;;;;;4.95;4.20;;;845.70;998.40;;;;;;5029043;28;20079;-61
2022/05/12 08:50:02;;;;;;;5.22;4.03;;;845.40;1024.00;;;;;;5029433;28;20071;-61
2022/05/12 08:52:48;;;;;;;4.13;3.45;;;845.40;998.40;;;;;;5029623;28;20026;-60
2022/05/12 08:55:32;;;;;;;4.70;4.05;;;845.10;1049.60;;;;;;5029313;28;20055;-61
2022/05/12 08:58:00;;;;;;;6.18;3.50;;;845.10;1049.60;;;;;;5029389;28;20117;-61
2022/05/12 09:00:31;;;;;;;5.07;3.95;;;845.10;1049.60;;;;;;5029088;28;20074;-61
2022/05/12 09:03:39;;;;;;;3.85;3.45;;;845.10;1075.20;;;;;;5029596;28;20052;-61
2022/05/12 09:06:09;;;;;;;4.57;3.85;;;844.80;1100.80;;;;;;5028945;28;20045;-61
2022/05/12 09:08:53;;;;;;;4.95;3.80;;;844.80;1075.20;;;;;;5029209;28;20029;-61
2022/05/12 09:11:30;;;;;;;5.13;3.60;;;844.80;1075.20;;;;;;5029192;28;20128;-61
2022/05/12 09:13:56;;;;;;;7.40;3.80;;;844.80;1075.20;;;;;;5028671;28;20032;-61
2022/05/12 09:16:32;;;;;;;4.90;4.05;;;819.80;1075.20;;;;;;5028880;28;20034;-61
2022/05/12 09:18:59;;;;;;;4.13;3.65;;;820.00;1075.20;;;;;;5028998;28;20021;-61
2022/05/12 09:21:33;;;;;;;4.28;3.28;;;819.60;1152.00;;;;;;5028847;28;20113;-61
2022/05/12 09:23:59;;;;;;;4.78;4.18;;;819.70;1075.20;;;;;;5028959;28;20064;-61
2022/05/12 09:26:47;;;;;;;4.45;3.58;;;819.50;1075.20;;;;;;5029300;28;20049;-61
2022/05/12 09:29:30;;;;;;;5.97;3.25;;;819.50;1075.20;;;;;;5030974;28;20021;-61
2022/05/12 09:32:02;;;;;;;5.47;3.78;;;794.50;1075.20;;;;;;5030055;28;20026;-61
2022/05/12 09:34:39;;;;;;;5.00;4.30;;;794.30;1100.80;;;;;;5030365;28;20064;-61
2022/05/12 09:37:18;;;;;;;5.78;3.60;;;794.30;1126.40;;;;;;5029848;28;20057;-61
2022/05/12 09:40:15;;;;;;;4.38;3.72;;;794.50;1100.80;;;;;;5030026;28;20029;-61
2022/05/12 09:42:44;;;;;;;5.07;3.13;;;794.00;1126.40;;;;;;5029988;28;20037;-61
2022/05/12 09:45:16;;;;;;;5.15;3.72;;;794.20;1100.80;;;;;;5030338;28;20037;-61
2022/05/12 09:47:42;;;;;;;3.88;3.13;;;794.30;1100.80;;;;;;5030258;28;20060;-61
2022/05/12 09:50:16;;;;;;;5.43;3.20;;;794.20;1100.80;;;;;;5030316;28;20021;-60
2022/05/12 09:52:44;;;;;;;4.75;4.13;;;794.10;1075.20;;;;;;5030066;28;20074;-61
2022/05/12 09:55:38;;;;;;;4.05;3.35;;;794.10;1126.40;;;;;;5030027;28;20018;-61
2022/05/12 09:58:35;;;;;;;4.20;3.40;;;794.00;1126.40;;;;;;5029786;28;20037;-61
2022/05/12 10:01:06;;;;;;;4.35;3.25;;;794.00;1177.60;;;;;;5029695;28;20033;-61
2022/05/12 10:09:05;;;;;;;3.45;3.15;;;793.90;1100.80;;;;;;5029906;28;20057;-61
2022/05/12 10:11:41;;;;;;;4.75;3.35;;;794.00;1100.80;;;;;;5029717;28;20065;-61
2022/05/12 10:14:37;;;;;;;4.28;3.38;;;794.00;1075.20;;;;;;5029831;28;20050;-61
2022/05/12 10:17:18;;;;;;;4.05;3.00;;;794.00;1075.20;;;;;;5029093;28;20380;-61
2022/05/12 10:19:45;;;;;;;3.75;2.97;;;793.80;1049.60;;;;;;5029480;28;20022;-61
2022/05/12 10:22:18;;;;;;;4.57;3.45;;;793.70;1024.00;;;;;;5029585;28;20037;-61
2022/05/12 10:24:50;;;;;;;;;;;768.90;1024.00;;;;;;5029845;28;20042;-61
2022/05/12 10:27:30;;;;;;;4.95;3.25;;;768.40;1075.20;;;;;;5029601;28;19974;-61
2022/05/12 10:30:24;;;;;;;4.13;3.08;;;768.40;1049.60;;;;;;5029569;28;20526;-61
2022/05/12 10:33:13;;;;;;;4.15;2.92;;;768.70;1049.60;;;;;;5029673;28;20422;-61
2022/05/12 10:35:52;;;;;;;7.60;3.90;;;768.90;1049.60;;;;;;5029872;28;20026;-61
2022/05/12 10:38:33;;;;;;;6.20;4.38;;;768.90;1075.20;;;;;;5029430;28;20068;-61
2022/05/12 10:41:37;;;;;;;3.55;3.20;;;768.90;1075.20;;;;;;5029695;28;20111;-60
2022/05/12 10:44:24;;;;;;;4.60;3.35;;;793.60;1152.00;;;;;;5029388;28;20052;-61
2022/05/12 10:46:55;;;;;;;4.70;3.33;;;768.90;1100.80;;;;;;5031176;28;20483;-61
2022/05/12 10:49:29;;;;;;;5.25;3.90;;;768.90;1075.20;;;;;;5031032;28;20160;-61
2022/05/12 10:52:00;;;;;;;3.70;3.17;;;768.90;1049.60;;;;;;5031098;28;20431;-61
2022/05/12 10:54:57;;;;;;;4.10;3.22;;;768.90;1100.80;;;;;;5031150;28;20032;-60
2022/05/12 10:57:39;;;;;;;14.13;5.75;;;768.90;1049.60;;;;;;4971972;28;20042;-61
2022/05/12 11:00:26;;;;;;;8.32;3.90;;;768.70;1075.20;;;;;;4971965;28;20089;-60
2022/05/12 11:02:55;;;;;;;5.15;3.40;;;768.00;1075.20;;;;;;4971897;28;20043;-61
2022/05/12 11:05:21;;;;;;;4.07;3.20;;;768.00;1075.20;;;;;;4971865;28;20074;-61
2022/05/12 11:07:53;;;;;;;4.30;2.92;;;768.10;1075.20;;;;;;4971816;28;20541;-61
2022/05/12 11:10:36;;;;;;;3.78;2.97;;;768.40;1100.80;;;;;;4972142;28;20031;-61
2022/05/12 11:13:11;;;;;;;4.00;3.00;;;768.50;1075.20;;;;;;4971829;28;20050;-61
2022/05/12 11:16:04;;;;;;;4.22;3.05;;;768.40;1049.60;;;;;;4971881;28;20516;-61
2022/05/12 11:18:43;;;;;;;4.00;3.30;;;768.30;1049.60;;;;;;4973179;28;20030;-60
2022/05/12 11:21:14;;;;;;;5.78;3.30;;;768.30;1049.60;;;;;;4991223;28;20035;-61
2022/05/12 11:23:58;;;;;;;4.53;3.50;;;743.30;1075.20;;;;;;4991097;28;20035;-60
2022/05/12 11:27:01;;;;;;;4.50;3.22;;;768.30;1049.60;;;;;;4991113;28;20030;-60
2022/05/12 11:30:04;;;;;;;3.50;3.20;;;743.30;1024.00;;;;;;4991262;28;20384;-61
2022/05/12 11:33:09;;;;;;;3.75;2.97;;;768.10;1024.00;;;;;;4991119;28;20274;-60
2022/05/12 11:35:48;;;;;;;4.57;3.35;;;768.50;1049.60;;;;;;5032287;28;20026;-60
2022/05/12 11:38:48;;;;;;;3.80;3.30;;;768.50;1049.60;;;;;;5032105;28;20069;-60
2022/05/12 11:41:23;;;;;;;4.65;3.30;;;768.40;1024.00;;;;;;5030034;28;20222;-61
2022/05/12 11:46:33;;;;;;;5.47;3.35;;;768.50;1075.20;;;;;;5030273;28;20113;-61
2022/05/12 11:49:24;;;;;;;4.57;3.00;;;768.60;998.40;;;;;;5030237;28;20116;-61
2022/05/12 11:52:25;;;;;;;4.50;3.30;;;768.60;1024.00;;;;;;5022190;28;20040;-60
2022/05/12 11:54:59;;;;;;;4.97;3.33;;;768.70;1024.00;;;;;;4970290;28;20078;-61
2022/05/12 11:57:36;;;;;;;3.53;2.58;;;768.70;1049.60;;;;;;5020729;28;20037;-61
2022/05/12 12:00:11;;;;;;;4.88;3.08;;;768.80;1075.20;;;;;;5029681;28;20398;-61
2022/05/12 12:02:40;;;;;;;3.97;3.05;;;768.80;998.40;;;;;;5029702;28;20022;-61
2022/05/12 12:05:08;;;;;;;6.60;3.50;;;768.70;1049.60;;;;;;5029779;28;20046;-61
2022/05/12 12:07:35;;;;;;;5.47;2.95;;;768.70;998.40;;;;;;5029524;28;20053;-61
2022/05/12 12:10:27;;;;;;;3.97;3.05;;;768.70;998.40;;;;;;5029575;28;20075;-61
2022/05/12 12:13:02;;;;;;;4.75;3.35;;;768.70;1024.00;;;;;;5029643;28;20475;-61
2022/05/12 12:15:30;;;;;;;4.13;3.17;;;768.60;998.40;;;;;;5029601;28;20029;-61
2022/05/12 12:17:57;;;;;;;3.90;3.17;;;768.70;998.40;;;;;;5031126;28;20037;-60
2022/05/12 12:20:29;;;;;;;4.57;3.58;;;768.80;1049.60;;;;;;5031552;28;20025;-60
2022/05/12 12:23:34;;;;;;;5.82;2.90;;;768.30;1024.00;;;;;;5031504;28;20022;-60
2022/05/12 12:26:00;;;;;;;3.72;3.13;;;768.40;998.40;;;;;;5031353;28;20402;-60
2022/05/12 12:28:57;;;;;;;3.67;3.08;;;768.60;1024.00;;;;;;5031550;28;20030;-60
2022/05/12 12:31:25;;;;;;;4.35;3.25;;;768.20;998.40;;;;;;5031418;28;20029;-61
2022/05/12 12:34:21;;;;;;;5.93;3.55;;;768.20;998.40;;;;;;5031391;28;20057;-61
2022/05/12 12:36:49;;;;;;;4.35;3.95;;;768.10;998.40;;;;;;5031140;28;20025;-61
2022/05/12 12:39:55;;;;;;;4.28;3.00;;;768.40;1024.00;;;;;;5031218;28;20048;-61
2022/05/12 12:42:43;;;;;;;3.80;3.22;;;768.20;1024.00;;;;;;5028959;28;20404;-61
2022/05/12 12:45:18;;;;;;;3.85;2.85;;;768.20;1024.00;;;;;;5029093;28;20141;-60
2022/05/12 12:48:08;;;;;;;5.00;3.05;;;768.50;1075.20;;;;;;5028806;28;20029;-60
2022/05/12 12:50:40;;;;;;;5.25;3.38;;;768.70;1075.20;;;;;;5028786;28;20404;-61
2022/05/12 12:53:06;;;;;;;4.35;3.17;;;768.90;1126.40;;;;;;5028769;28;20025;-61
2022/05/12 12:58:39;;;;;;;6.60;2.90;;;768.90;1049.60;;;;;;5029023;28;20435;-61
2022/05/12 13:01:16;;;;;;;5.03;3.25;;;768.90;1075.20;;;;;;5028828;28;20041;-61